Time;durP1;ratioP1;P1;durP2;ratioP2;P2;SDS_P1;SDS_P2;PMS_P1;PMS_P2;Temp;Humidity;BMP_temperature;BMP_pressure;BME280_temperature;BME280_humidity;BME280_pressure;Samples;Min_cycle;Max_cycle;Signal;HPM_P1;HPM_P2
2021/03/27 00:00:52;;;;;;;12.40;1.35;;;;;;;2.91;80.38;100279.94;5007560;28;20033;-78
2021/03/27 00:03:34;;;;;;;6.47;0.93;;;;;;;2.93;81.17;100272.41;5027760;28;20030;-80
2021/03/27 00:06:02;;;;;;;2.90;0.65;;;;;;;2.93;79.94;100283.22;5008248;28;20073;-78
2021/03/27 00:09:03;;;;;;;9.18;1.05;;;;;;;2.95;80.75;100283.84;4999653;28;20053;-79
2021/03/27 00:11:43;;;;;;;3.88;0.88;;;;;;;2.92;80.16;100286.16;4993634;28;20375;-75
2021/03/27 00:14:17;;;;;;;8.80;1.25;;;;;;;2.93;80.42;100280.53;4998918;28;20041;-76
2021/03/27 00:16:54;;;;;;;4.97;1.05;;;;;;;2.95;81.13;100300.06;5012716;28;20041;-75
2021/03/27 00:19:51;;;;;;;6.40;1.02;;;;;;;2.93;80.25;100294.03;4991684;28;20045;-76
2021/03/27 00:22:28;;;;;;;10.00;0.90;;;;;;;2.87;80.37;100300.31;4999151;28;20110;-77
2021/03/27 00:25:08;;;;;;;7.53;1.60;;;;;;;2.86;80.27;100287.88;5017081;28;20032;-75
2021/03/27 00:27:47;;;;;;;2.72;1.17;;;;;;;2.87;80.01;100300.31;5008673;28;20018;-76
2021/03/27 00:30:17;;;;;;;9.30;0.80;;;;;;;2.85;80.33;100290.78;5009983;28;20034;-76
2021/03/27 00:32:48;;;;;;;5.60;1.08;;;;;;;2.86;80.01;100293.28;4995093;28;20044;-76
2021/03/27 00:35:32;;;;;;;9.93;1.48;;;;;;;2.81;80.71;100273.38;4996940;28;20045;-76
2021/03/27 00:38:01;;;;;;;2.72;0.77;;;;;;;2.91;80.29;100296.13;5013729;28;20056;-76
2021/03/27 00:40:34;;;;;;;3.65;0.73;;;;;;;2.86;79.15;100274.38;5005342;28;20084;-77
2021/03/27 00:43:56;;;;;;;3.92;0.80;;;;;;;2.92;79.61;100292.41;5015098;28;20384;-80
2021/03/27 00:46:23;;;;;;;5.55;1.05;;;;;;;2.71;78.69;100273.84;4948185;29;20063;-79
2021/03/27 00:48:57;;;;;;;3.55;0.90;;;;;;;2.80;79.41;100299.53;4941315;29;20027;-80
2021/03/27 00:51:30;;;;;;;7.22;1.25;;;;;;;2.86;78.33;100314.03;4988896;28;20574;-80
2021/03/27 00:55:00;;;;;;;3.30;1.15;;;;;;;2.85;78.54;100313.22;5020670;28;20554;-78
2021/03/27 00:57:40;;;;;;;5.63;0.88;;;;;;;2.70;78.29;100289.22;5018185;28;20065;-78
2021/03/27 01:00:33;;;;;;;5.28;1.27;;;;;;;2.78;77.87;100307.03;5015536;28;20025;-77
2021/03/27 01:03:15;;;;;;;3.42;0.80;;;;;;;2.80;77.25;100323.84;5022358;28;20037;-78
2021/03/27 01:05:45;;;;;;;3.42;1.25;;;;;;;2.83;77.96;100320.69;5007703;28;20026;-76
2021/03/27 01:08:16;;;;;;;11.10;1.55;;;;;;;2.83;78.17;100304.50;5008571;28;20068;-77
2021/03/27 01:11:08;;;;;;;13.00;1.45;;;;;;;2.98;77.58;100323.13;5005253;28;20021;-77
2021/03/27 01:13:54;;;;;;;3.15;1.10;;;;;;;2.94;77.51;100317.31;5020891;28;20075;-77
2021/03/27 01:16:28;;;;;;;5.72;1.70;;;;;;;2.92;76.98;100314.00;5011694;28;20030;-78
2021/03/27 01:19:05;;;;;;;13.20;1.40;;;;;;;3.06;77.76;100335.53;5031064;28;20033;-78
2021/03/27 01:21:39;;;;;;;7.40;1.88;;;;;;;2.92;76.97;100315.88;5011646;28;20051;-79
2021/03/27 01:24:37;;;;;;;4.90;1.30;;;;;;;3.02;77.69;100324.31;5028767;28;20021;-77
2021/03/27 01:27:09;;;;;;;8.40;1.38;;;;;;;3.04;77.20;100324.09;4996749;28;20034;-79
2021/03/27 01:29:50;;;;;;;4.93;1.15;;;;;;;3.24;77.55;100353.69;5046706;28;20457;-79
2021/03/27 01:32:56;;;;;;;10.48;1.15;;;;;;;3.08;76.75;100334.28;5036416;28;20026;-76
2021/03/27 01:35:44;;;;;;;8.45;1.52;;;;;;;3.16;77.16;100362.06;5014493;28;20024;-76
2021/03/27 01:38:35;;;;;;;9.32;1.38;;;;;;;3.18;76.68;100349.97;5015254;28;20049;-78
2021/03/27 01:41:27;;;;;;;5.28;2.22;;;;;;;3.29;77.22;100370.09;5013792;28;20030;-78
2021/03/27 01:44:13;;;;;;;14.68;1.48;;;;;;;3.23;76.47;100360.97;5006574;28;20053;-77
2021/03/27 01:46:51;;;;;;;;;;;;;;;3.43;76.80;100382.47;5010818;28;20021;-78
2021/03/27 01:49:34;;;;;;;6.80;1.33;;;;;;;3.34;76.47;100372.94;5027336;28;19913;-77
2021/03/27 01:52:02;;;;;;;8.63;1.52;;;;;;;3.55;76.15;100406.06;5017657;28;20018;-78
2021/03/27 01:55:16;;;;;;;14.63;1.10;;;;;;;3.55;76.14;100397.94;5008380;28;20038;-78
2021/03/27 01:58:17;;;;;;;3.15;0.80;;;;;;;3.69;76.03;100417.59;4957246;29;20042;-78
2021/03/27 02:00:58;;;;;;;7.38;1.15;;;;;;;3.67;75.76;100415.94;5027278;28;20022;-79
2021/03/27 02:03:40;;;;;;;9.77;2.03;;;;;;;3.51;76.13;100402.97;5027212;28;20032;-77
2021/03/27 02:06:26;;;;;;;6.32;1.30;;;;;;;3.79;76.14;100445.00;5034551;28;20076;-78
2021/03/27 02:09:07;;;;;;;7.55;1.88;;;;;;;3.81;77.64;100445.59;5018928;28;20033;-78
2021/03/27 02:11:56;;;;;;;13.02;1.98;;;;;;;3.65;78.96;100425.31;5009435;28;20068;-79
2021/03/27 02:14:31;;;;;;;17.98;1.85;;;;;;;3.80;80.59;100449.34;5000407;28;20022;-76
2021/03/27 02:17:04;;;;;;;6.97;1.58;;;;;;;3.69;80.52;100452.75;4992387;28;20050;-74
2021/03/27 02:20:05;;;;;;;9.90;1.42;;;;;;;3.80;81.46;100465.59;5012029;28;20068;-80
2021/03/27 02:22:38;;;;;;;3.85;1.10;;;;;;;3.75;81.06;100462.69;4997369;28;20643;-78
2021/03/27 02:25:09;;;;;;;9.38;1.17;;;;;;;3.67;81.49;100467.31;5031705;28;20022;-79
2021/03/27 02:31:03;;;;;;;6.95;1.52;;;;;;;3.51;81.16;100440.81;4963358;28;21805;-78
2021/03/27 02:33:48;;;;;;;1.70;0.65;;;;;;;3.53;81.30;100463.06;5024935;28;20018;-78
2021/03/27 02:36:58;;;;;;;3.97;0.98;;;;;;;3.45;81.61;100453.34;5007043;28;20383;-81
2021/03/27 02:40:00;;;;;;;6.00;1.65;;;;;;;3.44;81.98;100467.09;5023306;28;20057;-79
2021/03/27 02:42:38;;;;;;;16.58;1.80;;;;;;;3.41;82.70;100464.81;5025502;28;20038;-78
2021/03/27 02:45:15;;;;;;;11.25;1.35;;;;;;;3.31;82.10;100468.84;5017619;28;20121;-78
2021/03/27 02:48:08;;;;;;;7.07;1.58;;;;;;;3.22;83.12;100469.28;4993976;28;20422;-77
2021/03/27 02:51:23;;;;;;;20.92;2.35;;;;;;;3.06;82.71;100447.13;5011276;28;20029;-77
2021/03/27 02:54:27;;;;;;;10.63;1.38;;;;;;;3.22;83.38;100488.22;4988429;28;20060;-77
2021/03/27 02:57:09;;;;;;;4.72;1.50;;;;;;;3.08;83.12;100471.22;5025310;28;20157;-76
2021/03/27 02:59:51;;;;;;;3.83;1.30;;;;;;;3.03;83.35;100481.88;5015921;28;20380;-77
2021/03/27 03:02:22;;;;;;;14.90;2.67;;;;;;;3.05;83.52;100487.88;5011818;28;20021;-77
2021/03/27 03:05:20;;;;;;;2.90;0.75;;;;;;;3.04;83.07;100483.50;4985254;28;20045;-78
2021/03/27 03:07:54;;;;;;;8.73;1.20;;;;;;;2.88;83.32;100471.34;4994273;28;20026;-78
2021/03/27 03:10:36;;;;;;;10.38;2.42;;;;;;;2.87;82.66;100488.56;4984025;28;20022;-77
2021/03/27 03:13:22;;;;;;;8.10;1.70;;;;;;;2.75;83.48;100475.72;4988895;28;20044;-78
2021/03/27 03:15:56;;;;;;;5.15;1.33;;;;;;;2.79;83.38;100497.75;4997039;28;20029;-78
2021/03/27 03:18:58;;;;;;;8.70;1.90;;;;;;;2.71;84.19;100493.38;5011038;28;20113;-80
2021/03/27 03:21:33;;;;;;;13.48;2.78;;;;;;;2.66;83.64;100489.66;5006360;28;20420;-79
2021/03/27 03:24:11;;;;;;;4.53;1.38;;;;;;;2.81;83.97;100514.56;5011978;28;20168;-78
2021/03/27 03:26:59;;;;;;;7.13;1.90;;;;;;;2.75;84.70;100507.31;5008103;28;20018;-79
2021/03/27 03:29:35;;;;;;;5.55;1.00;;;;;;;2.79;83.68;100519.34;4987492;28;20026;-79
2021/03/27 03:32:07;;;;;;;5.20;1.30;;;;;;;2.71;83.98;100512.28;4988927;28;20364;-78
2021/03/27 03:35:14;;;;;;;15.68;1.60;;;;;;;2.74;83.60;100511.88;4992459;28;20025;-77
2021/03/27 03:37:55;;;;;;;10.52;1.23;;;;;;;2.89;83.71;100533.25;5023115;28;20084;-79
2021/03/27 03:40:52;;;;;;;12.38;1.50;;;;;;;2.97;83.66;100524.88;5017722;28;20014;-78
2021/03/27 03:43:37;;;;;;;4.82;0.82;;;;;;;3.03;83.20;100535.91;5001363;28;20050;-79
2021/03/27 03:46:22;;;;;;;7.00;2.33;;;;;;;3.22;83.66;100539.56;5020107;28;20160;-79
2021/03/27 03:48:47;;;;;;;15.13;1.63;;;;;;;3.24;83.47;100543.72;4994292;28;20022;-79
2021/03/27 03:51:45;;;;;;;13.48;1.88;;;;;;;3.28;83.46;100531.41;5013192;28;20109;-78
2021/03/27 03:54:29;;;;;;;9.95;1.50;;;;;;;3.32;82.72;100540.75;5017850;28;20021;-76
2021/03/27 03:57:18;;;;;;;9.85;1.85;;;;;;;3.26;83.22;100552.44;5008654;28;20022;-78
2021/03/27 03:59:59;;;;;;;8.90;2.08;;;;;;;3.22;82.88;100556.59;5005452;28;20026;-77
2021/03/27 04:02:36;;;;;;;9.02;2.03;;;;;;;3.14;83.44;100548.75;4994959;28;20052;-78
2021/03/27 04:05:15;;;;;;;10.70;1.75;;;;;;;3.34;83.49;100569.44;4991897;28;20034;-78
2021/03/27 04:07:53;;;;;;;8.10;1.73;;;;;;;3.36;83.23;100559.25;4990895;28;20033;-79
2021/03/27 04:10:21;;;;;;;2.55;0.80;;;;;;;3.48;82.87;100565.66;4990817;28;20026;-78
2021/03/27 04:13:02;;;;;;;12.07;2.20;;;;;;;3.46;82.90;100554.19;4997509;28;20391;-78
2021/03/27 04:15:52;;;;;;;6.65;1.55;;;;;;;3.57;82.36;100580.56;5016233;28;20357;-78
2021/03/27 04:18:39;;;;;;;9.43;1.42;;;;;;;3.64;82.14;100580.53;5003836;28;20088;-78
2021/03/27 04:21:24;;;;;;;5.50;1.38;;;;;;;3.69;81.95;100585.28;5010800;28;20076;-76
2021/03/27 04:24:02;;;;;;;8.20;0.93;;;;;;;3.67;81.63;100572.81;5016985;28;20486;-77
2021/03/27 04:26:35;;;;;;;6.47;1.20;;;;;;;3.72;81.01;100587.56;5013211;28;20026;-79
2021/03/27 04:29:10;;;;;;;2.78;0.85;;;;;;;3.71;80.56;100592.16;5015000;28;20077;-79
2021/03/27 04:31:56;;;;;;;;;;;;;;;3.69;79.89;100588.00;5003409;28;20026;-80
2021/03/27 04:34:39;;;;;;;6.68;0.98;;;;;;;3.59;80.37;100600.13;4995066;28;20381;-78
2021/03/27 04:37:31;;;;;;;5.82;1.00;;;;;;;3.53;80.42;100592.84;5000516;28;20519;-78
2021/03/27 04:40:29;;;;;;;5.22;1.23;;;;;;;3.60;80.47;100607.16;5005756;28;20050;-77
2021/03/27 04:43:02;;;;;;;10.82;1.20;;;;;;;3.63;80.42;100628.38;4988727;28;20456;-79
2021/03/27 04:45:39;;;;;;;6.30;1.20;;;;;;;3.59;80.24;100616.34;5010193;28;20045;-78
2021/03/27 04:48:30;;;;;;;8.45;1.50;;;;;;;3.67;80.12;100621.50;5028006;28;20006;-78
2021/03/27 04:50:56;;;;;;;5.45;1.33;;;;;;;3.65;80.28;100625.44;5015942;28;20073;-78
2021/03/27 04:53:51;;;;;;;5.10;0.60;;;;;;;3.59;79.78;100626.31;5030749;28;20013;-79
2021/03/27 04:56:26;;;;;;;6.80;1.13;;;;;;;3.52;79.76;100625.50;5012614;28;20060;-79
2021/03/27 04:59:07;;;;;;;2.22;0.63;;;;;;;3.41;80.34;100627.03;5018500;28;20029;-79
2021/03/27 05:01:58;;;;;;;1.67;0.30;;;;;;;3.43;80.21;100650.09;5014763;28;20057;-79
2021/03/27 05:05:08;;;;;;;5.43;0.98;;;;;;;3.39;80.27;100648.00;5005554;28;20053;-77
2021/03/27 05:08:08;;;;;;;3.15;0.93;;;;;;;3.30;80.36;100634.75;4968663;28;20029;-77
2021/03/27 05:10:46;;;;;;;8.82;1.08;;;;;;;3.31;79.59;100636.41;4990557;28;20101;-78
2021/03/27 05:13:41;;;;;;;3.20;0.88;;;;;;;3.27;79.79;100628.94;4996468;28;20027;-77
2021/03/27 05:16:20;;;;;;;10.20;2.72;;;;;;;3.24;79.78;100641.03;4987626;28;20037;-76
2021/03/27 05:19:00;;;;;;;7.13;1.00;;;;;;;3.16;79.56;100649.34;4998670;28;20371;-77
2021/03/27 05:21:36;;;;;;;6.30;1.05;;;;;;;3.09;79.63;100648.53;4981895;28;20023;-78
2021/03/27 05:24:13;;;;;;;8.75;0.85;;;;;;;3.07;79.45;100656.84;5006797;28;20524;-76
2021/03/27 05:26:42;;;;;;;6.07;1.10;;;;;;;3.05;80.00;100663.50;4986972;28;20037;-77
2021/03/27 05:29:30;;;;;;;10.77;1.23;;;;;;;3.00;79.47;100655.19;4986195;28;20052;-78
2021/03/27 05:32:29;;;;;;;9.80;1.55;;;;;;;3.06;79.89;100679.50;5010948;28;20034;-77
2021/03/27 05:35:02;;;;;;;5.18;1.17;;;;;;;3.03;79.28;100671.00;5024101;28;20180;-78
2021/03/27 05:37:52;;;;;;;5.20;1.42;;;;;;;3.15;79.35;100688.22;4984521;28;20080;-77
2021/03/27 05:40:24;;;;;;;5.93;1.23;;;;;;;3.22;79.97;100704.44;4988686;28;20057;-77
2021/03/27 05:42:57;;;;;;;12.68;1.85;;;;;;;3.32;79.90;100707.53;5013089;28;20057;-79
2021/03/27 05:45:46;;;;;;;9.52;1.00;;;;;;;3.40;80.49;100709.16;4987211;28;20502;-79
2021/03/27 05:48:48;;;;;;;8.30;1.40;;;;;;;3.54;79.56;100718.91;5018842;28;20018;-79
2021/03/27 05:51:34;;;;;;;9.02;2.05;;;;;;;3.55;79.28;100733.25;5032213;28;20045;-79
2021/03/27 05:54:14;;;;;;;9.57;1.88;;;;;;;3.54;79.53;100732.44;5006751;28;20156;-79
2021/03/27 05:57:04;;;;;;;10.73;1.00;;;;;;;3.51;79.36;100726.63;5012218;28;20033;-78
2021/03/27 06:00:04;;;;;;;10.30;1.10;;;;;;;3.42;79.87;100739.53;4990916;28;20025;-79
2021/03/27 06:02:30;;;;;;;6.97;1.30;;;;;;;3.36;79.15;100727.69;4991444;28;20033;-78
2021/03/27 06:05:20;;;;;;;11.52;1.30;;;;;;;3.40;79.69;100741.59;4999543;28;20022;-78
2021/03/27 06:08:08;;;;;;;3.28;0.90;;;;;;;3.45;79.20;100749.94;5034555;28;20022;-78
2021/03/27 06:10:46;;;;;;;6.57;0.93;;;;;;;3.42;79.92;100755.75;5007278;28;20021;-81
2021/03/27 06:13:49;;;;;;;11.38;1.52;;;;;;;3.48;79.37;100768.44;4990552;28;20052;-78
2021/03/27 06:16:54;;;;;;;2.28;0.85;;;;;;;3.46;79.53;100773.19;5011985;28;20029;-79
2021/03/27 06:19:41;;;;;;;12.10;1.25;;;;;;;3.35;78.84;100765.75;5008307;28;20025;-79
2021/03/27 06:22:37;;;;;;;5.78;0.95;;;;;;;3.36;79.68;100768.25;5012713;28;20022;-78
2021/03/27 06:25:37;;;;;;;3.37;0.80;;;;;;;3.34;78.56;100764.09;4997608;28;20029;-75
2021/03/27 06:28:24;;;;;;;6.82;1.13;;;;;;;3.38;79.56;100792.38;5007468;28;20262;-75
2021/03/27 06:31:19;;;;;;;6.82;0.73;;;;;;;3.26;78.85;100790.28;5010823;28;20022;-75
2021/03/27 06:33:51;;;;;;;3.72;0.90;;;;;;;3.25;79.60;100799.44;4994990;28;20041;-74
2021/03/27 06:36:47;;;;;;;5.70;1.45;;;;;;;3.19;79.89;100794.84;4995591;28;20439;-76
2021/03/27 06:39:32;;;;;;;9.85;0.80;;;;;;;3.25;79.33;100807.53;4992487;28;20373;-76
2021/03/27 06:42:52;;;;;;;7.47;0.93;;;;;;;3.23;79.51;100804.22;5002201;28;20040;-75
2021/03/27 06:45:41;;;;;;;9.10;0.90;;;;;;;3.25;79.45;100804.84;4910403;28;21575;-76
2021/03/27 06:48:51;;;;;;;7.32;1.38;;;;;;;3.32;79.52;100816.47;5004912;28;20416;-74
2021/03/27 06:51:46;;;;;;;2.42;0.85;;;;;;;3.28;79.25;100801.72;4964539;28;20488;-74
2021/03/27 06:54:41;;;;;;;7.22;1.20;;;;;;;3.40;79.30;100822.72;4988001;28;20030;-75
2021/03/27 06:57:48;;;;;;;11.20;1.27;;;;;;;3.51;79.59;100832.91;4999958;28;20034;-75
2021/03/27 07:00:41;;;;;;;7.03;1.02;;;;;;;3.59;78.92;100827.28;5012215;28;20075;-75
2021/03/27 07:03:25;;;;;;;8.82;1.33;;;;;;;3.60;78.59;100822.69;5010942;28;20057;-73
2021/03/27 07:06:21;;;;;;;1.33;0.60;;;;;;;3.72;78.60;100847.22;4995629;28;20045;-74
2021/03/27 07:09:09;;;;;;;5.22;2.03;;;;;;;3.80;78.84;100855.16;4998935;28;20412;-74
2021/03/27 07:12:01;;;;;;;3.70;1.00;;;;;;;3.86;78.98;100856.19;5010871;28;20026;-74
2021/03/27 07:14:51;;;;;;;5.13;0.65;;;;;;;3.96;78.60;100854.69;5009205;28;20486;-73
2021/03/27 07:17:38;;;;;;;4.15;1.50;;;;;;;4.23;77.94;100875.44;5010572;28;20497;-73
2021/03/27 07:20:11;;;;;;;10.05;1.10;;;;;;;4.42;77.31;100884.53;4991328;28;20026;-73
2021/03/27 07:23:06;;;;;;;8.18;1.75;;;;;;;4.62;77.40;100879.06;5007569;28;20026;-72
2021/03/27 07:25:40;;;;;;;6.43;1.13;;;;;;;4.82;76.78;100882.50;4988983;28;20038;-74
2021/03/27 07:28:36;;;;;;;4.57;0.73;;;;;;;5.11;76.84;100898.38;5007232;28;20029;-72
2021/03/27 07:31:43;;;;;;;9.40;1.17;;;;;;;5.49;75.38;100911.03;4996188;28;20041;-74
2021/03/27 07:34:28;;;;;;;3.40;0.63;;;;;;;5.68;74.09;100915.50;4986661;28;20080;-74
2021/03/27 07:37:31;;;;;;;4.90;1.20;;;;;;;5.90;73.61;100934.09;4981487;28;20081;-73
2021/03/27 07:40:22;;;;;;;3.65;1.10;;;;;;;5.96;73.62;100933.22;5003066;28;20040;-72
2021/03/27 07:43:09;;;;;;;9.35;0.93;;;;;;;5.95;72.23;100940.50;4997935;28;20511;-75
2021/03/27 07:45:55;;;;;;;15.98;2.17;;;;;;;5.97;71.69;100945.75;4999094;28;20044;-74
2021/03/27 07:48:45;;;;;;;2.60;0.77;;;;;;;5.97;71.02;100934.88;4999309;28;20092;-74
2021/03/27 07:51:29;;;;;;;3.30;0.88;;;;;;;6.09;71.10;100937.72;5004901;28;20381;-76
2021/03/27 07:54:22;;;;;;;6.72;0.90;;;;;;;6.15;70.39;100946.84;5005609;28;20021;-75
2021/03/27 07:57:08;;;;;;;8.90;1.52;;;;;;;6.15;69.61;100946.84;5002932;28;20117;-74
2021/03/27 07:59:52;;;;;;;9.07;1.70;;;;;;;6.16;69.68;100954.75;5004973;28;20080;-74
2021/03/27 08:02:36;;;;;;;8.43;0.98;;;;;;;6.19;69.92;100953.47;5001357;28;20026;-73
2021/03/27 08:05:20;;;;;;;6.53;1.10;;;;;;;6.29;69.30;100967.38;5007048;28;20034;-74
2021/03/27 08:08:07;;;;;;;4.43;1.10;;;;;;;6.35;69.66;100965.66;5001062;28;20108;-74
2021/03/27 08:10:54;;;;;;;9.95;1.02;;;;;;;6.33;69.40;100960.44;4992777;28;20022;-73
2021/03/27 08:13:28;;;;;;;7.32;1.33;;;;;;;6.56;67.93;100972.56;5003693;28;20172;-73
2021/03/27 08:16:30;;;;;;;10.40;2.55;;;;;;;6.80;68.51;100979.81;4988817;28;20026;-74
2021/03/27 08:19:14;;;;;;;7.28;1.38;;;;;;;6.96;67.18;100988.38;4990984;28;20084;-72
2021/03/27 08:22:05;;;;;;;3.90;1.17;;;;;;;7.13;66.70;100981.25;4983258;28;20057;-74
2021/03/27 08:25:12;;;;;;;5.25;0.95;;;;;;;7.50;65.85;100997.53;5003641;28;20144;-72
2021/03/27 08:28:00;;;;;;;;;;;;;;;7.81;65.63;100997.47;5001144;28;20113;-73
2021/03/27 08:31:07;;;;;;;14.60;1.33;;;;;;;8.04;64.07;101002.13;5007584;28;19913;-73
2021/03/27 08:33:54;;;;;;;8.30;1.50;;;;;;;8.15;63.58;101001.31;4968927;28;20030;-74
2021/03/27 08:36:54;;;;;;;4.68;0.82;;;;;;;8.43;62.81;101007.94;5005537;28;20141;-73
2021/03/27 08:39:43;;;;;;;6.68;1.40;;;;;;;8.60;62.83;101023.59;4991785;28;20038;-73
2021/03/27 08:42:39;;;;;;;3.42;0.82;;;;;;;8.85;61.42;101021.44;4979504;28;20053;-73
2021/03/27 08:45:39;;;;;;;10.70;1.25;;;;;;;9.06;60.35;101024.59;5003484;28;20038;-71
2021/03/27 08:48:28;;;;;;;10.10;1.45;;;;;;;9.36;60.32;101034.47;4997130;28;20034;-74
2021/03/27 08:51:31;;;;;;;22.40;1.80;;;;;;;9.75;58.79;101031.94;5002277;28;20056;-73
2021/03/27 08:54:15;;;;;;;7.53;1.45;;;;;;;9.95;57.15;101037.75;4978532;28;20060;-73
2021/03/27 08:57:02;;;;;;;3.55;0.82;;;;;;;10.05;56.62;101042.56;5009481;28;20029;-72
2021/03/27 09:00:04;;;;;;;6.13;0.68;;;;;;;10.22;57.93;101048.06;5014183;28;20022;-73
2021/03/27 09:02:38;;;;;;;7.22;1.08;;;;;;;10.27;56.25;101048.13;5019456;28;20049;-73
2021/03/27 09:05:13;;;;;;;4.80;1.10;;;;;;;10.29;55.81;101054.19;5000789;28;20065;-73
2021/03/27 09:08:06;;;;;;;4.90;1.20;;;;;;;10.28;54.83;101063.44;5001516;28;20961;-75
2021/03/27 09:10:56;;;;;;;5.75;0.90;;;;;;;10.15;55.75;101080.19;5005445;28;20364;-76
2021/03/27 09:13:51;;;;;;;11.77;1.38;;;;;;;9.88;55.94;101075.31;5002797;28;20460;-73
2021/03/27 09:16:54;;;;;;;3.90;1.00;;;;;;;9.74;55.58;101072.09;4997643;28;20060;-74
2021/03/27 09:19:33;;;;;;;3.60;1.35;;;;;;;9.64;55.88;101084.69;5007049;28;20053;-75
2021/03/27 09:22:37;;;;;;;2.45;0.80;;;;;;;9.54;57.55;101080.69;4999891;28;20026;-74
2021/03/27 09:25:35;;;;;;;2.72;1.20;;;;;;;9.54;55.87;101080.69;4986603;28;20021;-73
2021/03/27 09:28:27;;;;;;;10.27;1.30;;;;;;;9.55;56.62;101074.19;4985526;28;20081;-73
2021/03/27 09:31:32;;;;;;;7.80;1.20;;;;;;;9.73;54.97;101077.78;5023275;28;20026;-75
2021/03/27 09:34:20;;;;;;;3.83;1.50;;;;;;;9.75;55.91;101092.88;5005524;28;20368;-76
2021/03/27 09:37:08;;;;;;;3.63;1.52;;;;;;;9.61;55.43;101096.97;5007091;28;20542;-73
2021/03/27 09:39:43;;;;;;;1.33;0.63;;;;;;;9.44;56.24;101097.69;4989554;28;20049;-73
2021/03/27 09:42:30;;;;;;;5.15;1.45;;;;;;;9.31;56.92;101102.63;4981326;28;20543;-72
2021/03/27 09:45:14;;;;;;;6.57;1.50;;;;;;;9.16;57.12;101095.75;5006014;28;20038;-73
2021/03/27 09:48:01;;;;;;;2.97;1.08;;;;;;;9.13;56.75;101107.16;5011386;28;20049;-73
2021/03/27 09:50:32;;;;;;;3.78;0.90;;;;;;;9.05;58.58;101105.63;4996823;28;20053;-72
2021/03/27 09:53:30;;;;;;;13.98;1.33;;;;;;;9.20;58.89;101109.75;5006666;28;20026;-74
2021/03/27 09:56:16;;;;;;;3.47;0.77;;;;;;;9.63;59.07;101126.75;5003410;28;20042;-73
2021/03/27 09:58:59;;;;;;;3.00;1.10;;;;;;;10.04;58.00;101127.53;5005449;28;20081;-75
2021/03/27 10:01:59;;;;;;;;;;;;;;;;;;;;;
2021/03/27 10:04:56;;;;;;;4.40;0.75;;;;;;;11.12;55.11;101132.03;5008299;28;20026;-75
2021/03/27 10:07:51;;;;;;;4.75;1.33;;;;;;;11.35;55.95;101128.22;4987479;28;20400;-74
2021/03/27 10:10:45;;;;;;;3.50;1.00;;;;;;;11.89;53.40;101138.47;5004984;28;20030;-74
2021/03/27 10:13:59;;;;;;;5.70;0.93;;;;;;;12.60;52.31;101140.25;5002514;28;20694;-77
2021/03/27 10:16:38;;;;;;;4.20;1.08;;;;;;;13.73;50.64;101118.94;4980845;28;20025;-77
2021/03/27 10:19:16;;;;;;;3.80;0.68;;;;;;;14.57;47.21;101126.19;4992127;28;20029;-76
2021/03/27 10:22:09;;;;;;;11.40;1.15;;;;;;;15.27;43.61;101150.34;5006679;28;20030;-75
2021/03/27 10:24:49;;;;;;;4.88;1.27;;;;;;;15.73;42.06;101146.59;5009815;28;20036;-76
2021/03/27 10:27:35;;;;;;;3.88;1.00;;;;;;;16.38;41.61;101140.97;4986594;28;20021;-77
2021/03/27 10:30:47;;;;;;;6.30;1.30;;;;;;;17.44;38.82;101150.47;5015853;28;20541;-77
2021/03/27 10:33:29;;;;;;;9.82;1.27;;;;;;;18.07;37.51;101152.16;4992652;28;20094;-76
2021/03/27 10:36:09;;;;;;;3.67;1.05;;;;;;;18.28;34.99;101136.09;4988455;28;20056;-76
2021/03/27 10:39:26;;;;;;;7.50;1.58;;;;;;;19.03;33.69;101139.00;4996233;28;20464;-75
2021/03/27 10:42:03;;;;;;;2.42;0.90;;;;;;;19.40;34.33;101155.75;4971007;28;20055;-73
2021/03/27 10:44:34;;;;;;;4.22;0.80;;;;;;;19.76;32.27;101143.91;5015933;28;20066;-80
2021/03/27 10:47:14;;;;;;;8.05;1.30;;;;;;;20.02;30.36;101133.09;5020029;28;20090;-77
2021/03/27 10:50:15;;;;;;;2.15;1.05;;;;;;;19.36;30.49;101128.63;5014828;28;20069;-78
2021/03/27 10:52:43;;;;;;;11.15;1.23;;;;;;;19.42;31.86;101146.00;5000132;28;20046;-76
2021/03/27 10:55:37;;;;;;;7.30;1.63;;;;;;;19.04;31.95;101134.25;5003014;28;20101;-78
2021/03/27 10:58:21;;;;;;;3.15;0.80;;;;;;;19.45;31.86;101150.09;5000656;28;20356;-78
2021/03/27 11:01:05;;;;;;;5.00;0.98;;;;;;;19.75;31.17;101136.72;5010916;28;20033;-75
2021/03/27 11:03:34;;;;;;;4.75;0.93;;;;;;;19.83;30.41;101155.41;5009270;28;20033;-76
2021/03/27 11:06:17;;;;;;;3.47;1.45;;;;;;;18.70;29.92;101135.41;4984873;28;20395;-78
2021/03/27 11:09:32;;;;;;;1.67;1.23;;;;;;;17.49;31.58;101153.16;4998399;28;20041;-77
2021/03/27 11:12:50;;;;;;;3.40;1.27;;;;;;;16.30;33.39;101161.72;4994347;28;20838;-78
2021/03/27 11:15:43;;;;;;;8.00;1.33;;;;;;;15.28;35.78;101150.06;5005082;28;20118;-77
2021/03/27 11:18:52;;;;;;;;;;;;;;;;;;;;;
2021/03/27 11:21:39;;;;;;;5.95;1.42;;;;;;;13.92;38.96;101137.69;5007223;28;20040;-78
2021/03/27 11:24:29;;;;;;;1.08;0.80;;;;;;;13.68;38.43;101157.41;5003533;28;20028;-77
2021/03/27 11:27:16;;;;;;;4.50;1.10;;;;;;;13.42;39.28;101156.47;5006246;28;20033;-76
2021/03/27 11:30:02;;;;;;;2.58;0.82;;;;;;;13.13;40.22;101150.47;4993173;28;20140;-77
2021/03/27 11:36:20;;;;;;;;;;;;;;;;;;;;;
2021/03/27 11:42:53;;;;;;;;;;;;;;;;;;;;;
2021/03/27 12:06:35;;;;;;;3.15;0.77;;;;;;;16.01;34.85;101147.84;4924510;29;20027;-75
2021/03/27 12:14:30;;;;;;;;;;;;;;;;;;;;;
2021/03/27 12:16:35;;;;;;;2.88;0.73;;;;;;;14.84;37.19;101165.28;4855200;29;20041;-76
2021/03/27 12:19:40;;;;;;;;;;;;;;;;;;;;;
2021/03/27 12:22:49;;;;;;;3.25;0.75;;;;;;;14.99;36.85;101172.69;4913583;29;20028;-77
2021/03/27 12:25:48;;;;;;;4.13;0.93;;;;;;;14.99;37.01;101160.88;4906467;29;20032;-74
2021/03/27 12:28:41;;;;;;;5.85;1.15;;;;;;;15.37;37.23;101175.09;4897186;29;20036;-75
2021/03/27 12:31:37;;;;;;;3.67;1.17;;;;;;;15.34;35.31;101189.44;4903304;29;20032;-75
2021/03/27 12:34:28;;;;;;;5.88;0.85;;;;;;;14.77;36.98;101164.75;4923217;28;21033;-76
2021/03/27 12:37:29;;;;;;;5.10;1.17;;;;;;;14.44;37.71;101183.44;4988034;28;20030;-76
2021/03/27 12:40:44;;;;;;;3.63;0.85;;;;;;;13.91;38.30;101158.84;5006563;28;20028;-75
2021/03/27 12:46:56;;;;;;;1.85;0.50;;;;;;;13.52;40.54;101159.25;4953768;28;20031;-75
2021/03/27 12:49:56;;;;;;;;;;;;;;;;;;;;;
2021/03/27 12:53:13;;;;;;;;;;;;;;;;;;;;;
2021/03/27 12:56:08;;;;;;;;;;;;;;;;;;;;;
2021/03/27 12:59:01;;;;;;;;;;;;;;;;;;;;;
2021/03/27 13:01:50;;;;;;;1.92;0.50;;;;;;;14.52;39.13;101171.06;5008714;28;20021;-74
2021/03/27 13:05:01;;;;;;;;;;;;;;;;;;;;;
2021/03/27 13:10:48;;;;;;;3.13;0.82;;;;;;;13.56;42.71;101203.50;5001496;28;20483;-75
2021/03/27 13:13:29;;;;;;;2.45;0.70;;;;;;;13.24;43.92;101204.38;5006891;28;20036;-75
2021/03/27 13:16:27;;;;;;;4.30;0.85;;;;;;;12.94;44.82;101194.84;4987352;28;20022;-75
2021/03/27 13:19:09;;;;;;;6.63;0.90;;;;;;;12.66;45.35;101190.50;5011319;28;20036;-74
2021/03/27 13:22:02;;;;;;;3.88;1.15;;;;;;;12.55;45.44;101186.84;5004062;28;20022;-74
2021/03/27 13:24:33;;;;;;;1.60;0.52;;;;;;;12.51;46.10;101196.69;5008958;28;20028;-74
2021/03/27 13:27:11;;;;;;;3.95;0.95;;;;;;;12.46;46.85;101200.22;5006503;28;20046;-77
2021/03/27 13:30:29;;;;;;;3.05;1.13;;;;;;;12.32;46.89;101197.03;5000378;28;20369;-73
2021/03/27 13:33:11;;;;;;;2.45;0.52;;;;;;;12.12;48.17;101186.72;4985254;28;20042;-76
2021/03/27 13:36:11;;;;;;;4.63;1.48;;;;;;;11.99;48.09;101178.91;5007458;28;20015;-74
2021/03/27 13:38:45;;;;;;;9.70;1.08;;;;;;;11.99;49.43;101201.63;5000096;28;20034;-75
2021/03/27 13:41:33;;;;;;;4.70;1.50;;;;;;;12.06;49.42;101201.44;5015775;28;20037;-74
2021/03/27 13:44:13;;;;;;;11.57;1.33;;;;;;;12.20;48.92;101201.88;5013104;28;20050;-75
2021/03/27 13:46:57;;;;;;;7.82;0.70;;;;;;;12.47;48.96;101198.28;5012496;28;20089;-74
2021/03/27 13:49:47;;;;;;;7.68;1.15;;;;;;;12.57;47.83;101181.91;4998451;28;20044;-77
2021/03/27 13:52:57;;;;;;;;;;;;;;;;;;;;;
2021/03/27 13:56:13;;;;;;;;;;;;;;;;;;;;;
2021/03/27 13:58:49;;;;;;;4.75;1.35;;;;;;;12.37;48.22;101185.31;5000940;28;20339;-76
2021/03/27 14:01:24;;;;;;;2.38;0.65;;;;;;;12.16;49.45;101189.75;4989227;28;20026;-75
2021/03/27 14:04:34;;;;;;;4.23;1.47;;;;;;;12.12;51.23;101202.31;4996643;28;20092;-77
2021/03/27 15:03:00;;;;;;;5.07;1.43;;;;;;;20.14;33.17;101152.78;4916576;29;20065;-77